sensor_id;sensor_type;location;lat;lon;timestamp;temperature;humidity
47114;DHT22;32867;51.556;6.832;2023-09-18T00:03:50;21.30;99.90
47114;DHT22;32867;51.556;6.832;2023-09-18T00:08:51;21.40;99.90
47114;DHT22;32867;51.556;6.832;2023-09-18T00:13:52;21.40;99.90
47114;DHT22;32867;51.556;6.832;2023-09-18T00:18:53;21.50;99.90
47114;DHT22;32867;51.556;6.832;2023-09-18T00:23:54;21.60;99.90
47114;DHT22;32867;51.556;6.832;2023-09-18T00:28:54;21.70;99.90
47114;DHT22;32867;51.556;6.832;2023-09-18T00:33:55;21.90;99.90
47114;DHT22;32867;51.556;6.832;2023-09-18T00:38:56;21.70;99.90
47114;DHT22;32867;51.556;6.832;2023-09-18T00:43:56;21.70;99.90
47114;DHT22;32867;51.556;6.832;2023-09-18T00:48:57;21.80;99.90
47114;DHT22;32867;51.556;6.832;2023-09-18T00:53:58;21.90;99.90
47114;DHT22;32867;51.556;6.832;2023-09-18T00:59:00;21.90;99.90
47114;DHT22;32867;51.556;6.832;2023-09-18T01:04:04;22.00;99.90
47114;DHT22;32867;51.556;6.832;2023-09-18T01:09:05;22.10;99.90
47114;DHT22;32867;51.556;6.832;2023-09-18T01:19:43;21.90;99.90
47114;DHT22;32867;51.556;6.832;2023-09-18T01:24:47;21.90;99.90
47114;DHT22;32867;51.556;6.832;2023-09-18T01:29:49;21.90;99.90
47114;DHT22;32867;51.556;6.832;2023-09-18T01:34:52;22.00;99.90
47114;DHT22;32867;51.556;6.832;2023-09-18T01:39:53;22.00;99.90
47114;DHT22;32867;51.556;6.832;2023-09-18T01:44:55;21.90;99.90
47114;DHT22;32867;51.556;6.832;2023-09-18T01:49:57;21.90;99.90
47114;DHT22;32867;51.556;6.832;2023-09-18T01:54:57;21.80;99.90
47114;DHT22;32867;51.556;6.832;2023-09-18T01:59:58;21.80;99.90
47114;DHT22;32867;51.556;6.832;2023-09-18T02:04:59;21.80;99.90
47114;DHT22;32867;51.556;6.832;2023-09-18T02:09:59;21.80;99.90
47114;DHT22;32867;51.556;6.832;2023-09-18T02:15:00;21.80;99.90
47114;DHT22;32867;51.556;6.832;2023-09-18T02:20:05;21.70;99.90
47114;DHT22;32867;51.556;6.832;2023-09-18T02:25:11;21.80;99.90
47114;DHT22;32867;51.556;6.832;2023-09-18T02:30:12;21.80;99.90
47114;DHT22;32867;51.556;6.832;2023-09-18T02:35:13;21.80;99.90
47114;DHT22;32867;51.556;6.832;2023-09-18T02:40:14;21.80;99.90
47114;DHT22;32867;51.556;6.832;2023-09-18T02:45:15;21.80;99.90
47114;DHT22;32867;51.556;6.832;2023-09-18T02:50:16;21.80;99.90
47114;DHT22;32867;51.556;6.832;2023-09-18T02:55:17;21.70;99.90
47114;DHT22;32867;51.556;6.832;2023-09-18T03:00:18;21.60;99.90
47114;DHT22;32867;51.556;6.832;2023-09-18T03:05:19;21.60;99.90
47114;DHT22;32867;51.556;6.832;2023-09-18T03:10:20;21.60;99.90
47114;DHT22;32867;51.556;6.832;2023-09-18T03:15:21;21.60;99.90
47114;DHT22;32867;51.556;6.832;2023-09-18T03:20:25;21.60;99.90
47114;DHT22;32867;51.556;6.832;2023-09-18T03:25:27;21.60;99.90
47114;DHT22;32867;51.556;6.832;2023-09-18T03:30:28;21.60;99.90
47114;DHT22;32867;51.556;6.832;2023-09-18T03:35:32;21.70;99.90
47114;DHT22;32867;51.556;6.832;2023-09-18T03:40:45;21.80;99.90
47114;DHT22;32867;51.556;6.832;2023-09-18T03:45:46;21.90;99.90
47114;DHT22;32867;51.556;6.832;2023-09-18T03:50:50;22.00;99.90
47114;DHT22;32867;51.556;6.832;2023-09-18T03:55:51;22.00;99.90
47114;DHT22;32867;51.556;6.832;2023-09-18T04:00:52;22.00;99.90
47114;DHT22;32867;51.556;6.832;2023-09-18T04:05:54;22.00;99.90
47114;DHT22;32867;51.556;6.832;2023-09-18T04:10:55;22.00;99.90
47114;DHT22;32867;51.556;6.832;2023-09-18T04:15:56;22.00;99.90
47114;DHT22;32867;51.556;6.832;2023-09-18T04:20:58;22.00;99.90
47114;DHT22;32867;51.556;6.832;2023-09-18T04:25:58;22.00;99.90
47114;DHT22;32867;51.556;6.832;2023-09-18T04:30:59;21.90;99.90
47114;DHT22;32867;51.556;6.832;2023-09-18T04:36:01;21.90;99.90
47114;DHT22;32867;51.556;6.832;2023-09-18T04:41:02;21.70;99.90
47114;DHT22;32867;51.556;6.832;2023-09-18T04:46:03;21.80;99.90
47114;DHT22;32867;51.556;6.832;2023-09-18T04:51:05;21.90;99.90
47114;DHT22;32867;51.556;6.832;2023-09-18T04:56:10;21.80;99.90
47114;DHT22;32867;51.556;6.832;2023-09-18T05:01:11;21.50;99.90
47114;DHT22;32867;51.556;6.832;2023-09-18T05:06:14;21.50;99.90
47114;DHT22;32867;51.556;6.832;2023-09-18T05:11:15;21.70;99.90
47114;DHT22;32867;51.556;6.832;2023-09-18T05:16:17;21.70;99.90
47114;DHT22;32867;51.556;6.832;2023-09-18T05:21:18;21.70;99.90
47114;DHT22;32867;51.556;6.832;2023-09-18T05:26:23;21.60;99.90
47114;DHT22;32867;51.556;6.832;2023-09-18T05:31:24;21.60;99.90
47114;DHT22;32867;51.556;6.832;2023-09-18T05:36:25;21.60;99.90
47114;DHT22;32867;51.556;6.832;2023-09-18T05:41:26;21.50;99.90
47114;DHT22;32867;51.556;6.832;2023-09-18T05:46:29;21.40;99.90
47114;DHT22;32867;51.556;6.832;2023-09-18T05:51:30;21.40;99.90
47114;DHT22;32867;51.556;6.832;2023-09-18T05:56:31;21.30;99.90
47114;DHT22;32867;51.556;6.832;2023-09-18T06:01:32;21.30;99.90
47114;DHT22;32867;51.556;6.832;2023-09-18T06:06:33;21.30;99.90
47114;DHT22;32867;51.556;6.832;2023-09-18T06:11:34;21.30;99.90
47114;DHT22;32867;51.556;6.832;2023-09-18T06:16:34;21.20;99.90
47114;DHT22;32867;51.556;6.832;2023-09-18T06:21:35;21.30;99.90
47114;DHT22;32867;51.556;6.832;2023-09-18T06:26:36;21.20;99.90
47114;DHT22;32867;51.556;6.832;2023-09-18T06:31:36;21.30;99.90
47114;DHT22;32867;51.556;6.832;2023-09-18T06:36:37;21.30;99.90
47114;DHT22;32867;51.556;6.832;2023-09-18T06:41:38;21.30;99.90
47114;DHT22;32867;51.556;6.832;2023-09-18T06:46:39;21.40;99.90
47114;DHT22;32867;51.556;6.832;2023-09-18T06:51:41;21.50;99.90
47114;DHT22;32867;51.556;6.832;2023-09-18T06:56:42;21.50;99.90
47114;DHT22;32867;51.556;6.832;2023-09-18T07:01:44;21.40;99.90
47114;DHT22;32867;51.556;6.832;2023-09-18T07:06:45;21.50;99.90
47114;DHT22;32867;51.556;6.832;2023-09-18T07:11:46;21.60;99.90
47114;DHT22;32867;51.556;6.832;2023-09-18T07:16:47;21.60;99.90
47114;DHT22;32867;51.556;6.832;2023-09-18T07:21:48;21.60;99.90
47114;DHT22;32867;51.556;6.832;2023-09-18T07:26:50;21.50;99.90
47114;DHT22;32867;51.556;6.832;2023-09-18T07:31:51;21.60;99.90
47114;DHT22;32867;51.556;6.832;2023-09-18T07:36:52;21.60;99.90
47114;DHT22;32867;51.556;6.832;2023-09-18T07:41:55;21.70;99.90
47114;DHT22;32867;51.556;6.832;2023-09-18T07:46:56;21.70;99.90
47114;DHT22;32867;51.556;6.832;2023-09-18T07:51:57;21.70;99.90
47114;DHT22;32867;51.556;6.832;2023-09-18T07:56:57;21.70;99.90
47114;DHT22;32867;51.556;6.832;2023-09-18T08:01:58;21.60;99.90
47114;DHT22;32867;51.556;6.832;2023-09-18T08:06:59;21.50;99.90
47114;DHT22;32867;51.556;6.832;2023-09-18T08:12:00;21.50;99.90
47114;DHT22;32867;51.556;6.832;2023-09-18T08:17:01;21.70;99.90
47114;DHT22;32867;51.556;6.832;2023-09-18T08:22:04;21.60;99.90
47114;DHT22;32867;51.556;6.832;2023-09-18T08:27:06;21.50;99.90
47114;DHT22;32867;51.556;6.832;2023-09-18T08:32:07;21.60;99.90
47114;DHT22;32867;51.556;6.832;2023-09-18T08:37:07;21.50;99.90
47114;DHT22;32867;51.556;6.832;2023-09-18T08:42:10;21.60;99.90
47114;DHT22;32867;51.556;6.832;2023-09-18T08:47:12;21.70;99.90
47114;DHT22;32867;51.556;6.832;2023-09-18T08:52:15;21.70;99.90
47114;DHT22;32867;51.556;6.832;2023-09-18T08:57:16;21.40;99.90
47114;DHT22;32867;51.556;6.832;2023-09-18T09:02:16;21.50;99.90
47114;DHT22;32867;51.556;6.832;2023-09-18T09:07:17;21.40;99.90
47114;DHT22;32867;51.556;6.832;2023-09-18T09:12:51;21.50;99.90
47114;DHT22;32867;51.556;6.832;2023-09-18T09:18:07;21.70;99.90
47114;DHT22;32867;51.556;6.832;2023-09-18T09:23:09;21.60;99.90
47114;DHT22;32867;51.556;6.832;2023-09-18T09:28:11;22.10;99.90
47114;DHT22;32867;51.556;6.832;2023-09-18T09:33:12;22.50;99.90
47114;DHT22;32867;51.556;6.832;2023-09-18T09:38:13;22.00;99.90
47114;DHT22;32867;51.556;6.832;2023-09-18T09:43:17;22.10;99.90
47114;DHT22;32867;51.556;6.832;2023-09-18T09:48:18;22.50;99.90
47114;DHT22;32867;51.556;6.832;2023-09-18T09:53:41;23.00;99.90
47114;DHT22;32867;51.556;6.832;2023-09-18T09:58:42;22.30;99.90
47114;DHT22;32867;51.556;6.832;2023-09-18T10:03:44;22.30;99.90
47114;DHT22;32867;51.556;6.832;2023-09-18T10:08:47;22.20;99.90
47114;DHT22;32867;51.556;6.832;2023-09-18T10:29:14;23.40;99.90
47114;DHT22;32867;51.556;6.832;2023-09-18T10:34:17;23.30;99.90
47114;DHT22;32867;51.556;6.832;2023-09-18T10:39:19;23.20;99.90
47114;DHT22;32867;51.556;6.832;2023-09-18T10:44:24;23.80;99.90
47114;DHT22;32867;51.556;6.832;2023-09-18T10:49:24;24.00;99.90
47114;DHT22;32867;51.556;6.832;2023-09-18T10:54:29;24.20;99.90
47114;DHT22;32867;51.556;6.832;2023-09-18T10:59:30;24.90;99.90
47114;DHT22;32867;51.556;6.832;2023-09-18T11:04:32;24.50;99.90
47114;DHT22;32867;51.556;6.832;2023-09-18T11:09:42;24.30;99.90
47114;DHT22;32867;51.556;6.832;2023-09-18T11:14:48;24.80;99.90
47114;DHT22;32867;51.556;6.832;2023-09-18T11:20:02;25.50;99.90
47114;DHT22;32867;51.556;6.832;2023-09-18T11:30:54;25.60;99.90
47114;DHT22;32867;51.556;6.832;2023-09-18T11:36:08;24.70;99.90
47114;DHT22;32867;51.556;6.832;2023-09-18T11:41:25;24.40;99.90
47114;DHT22;32867;51.556;6.832;2023-09-18T11:46:26;24.60;99.90
47114;DHT22;32867;51.556;6.832;2023-09-18T11:51:30;24.30;99.90
47114;DHT22;32867;51.556;6.832;2023-09-18T11:56:32;24.20;99.90
47114;DHT22;32867;51.556;6.832;2023-09-18T12:01:33;24.90;99.90
47114;DHT22;32867;51.556;6.832;2023-09-18T12:06:38;24.90;99.90
47114;DHT22;32867;51.556;6.832;2023-09-18T12:11:41;25.10;99.90
47114;DHT22;32867;51.556;6.832;2023-09-18T12:16:43;25.40;99.90
47114;DHT22;32867;51.556;6.832;2023-09-18T12:21:46;25.40;99.90
47114;DHT22;32867;51.556;6.832;2023-09-18T12:26:47;25.60;99.90
47114;DHT22;32867;51.556;6.832;2023-09-18T12:31:49;24.90;99.90
47114;DHT22;32867;51.556;6.832;2023-09-18T12:36:51;24.50;99.90
47114;DHT22;32867;51.556;6.832;2023-09-18T12:41:52;25.00;99.90
47114;DHT22;32867;51.556;6.832;2023-09-18T12:46:52;25.60;99.90
47114;DHT22;32867;51.556;6.832;2023-09-18T12:51:57;26.20;99.90
47114;DHT22;32867;51.556;6.832;2023-09-18T12:57:00;26.20;99.90
47114;DHT22;32867;51.556;6.832;2023-09-18T13:02:04;25.90;99.90
47114;DHT22;32867;51.556;6.832;2023-09-18T13:07:11;24.70;99.90
47114;DHT22;32867;51.556;6.832;2023-09-18T13:12:15;25.30;99.90
47114;DHT22;32867;51.556;6.832;2023-09-18T13:17:15;25.70;99.90
47114;DHT22;32867;51.556;6.832;2023-09-18T13:22:24;25.10;99.90
47114;DHT22;32867;51.556;6.832;2023-09-18T13:27:25;24.70;99.90
47114;DHT22;32867;51.556;6.832;2023-09-18T13:32:26;25.00;99.90
47114;DHT22;32867;51.556;6.832;2023-09-18T13:37:27;25.30;99.90
47114;DHT22;32867;51.556;6.832;2023-09-18T13:42:29;25.90;99.90
47114;DHT22;32867;51.556;6.832;2023-09-18T13:47:31;26.10;99.90
47114;DHT22;32867;51.556;6.832;2023-09-18T13:52:34;26.00;99.90
47114;DHT22;32867;51.556;6.832;2023-09-18T13:57:35;26.40;99.10
47114;DHT22;32867;51.556;6.832;2023-09-18T14:02:37;25.50;99.90
47114;DHT22;32867;51.556;6.832;2023-09-18T14:07:39;25.40;99.40
47114;DHT22;32867;51.556;6.832;2023-09-18T14:12:43;25.60;99.50
47114;DHT22;32867;51.556;6.832;2023-09-18T14:17:45;26.10;98.40
47114;DHT22;32867;51.556;6.832;2023-09-18T14:22:46;26.00;97.40
47114;DHT22;32867;51.556;6.832;2023-09-18T14:27:50;25.50;97.70
47114;DHT22;32867;51.556;6.832;2023-09-18T14:32:50;25.90;97.70
47114;DHT22;32867;51.556;6.832;2023-09-18T14:37:51;26.70;97.00
47114;DHT22;32867;51.556;6.832;2023-09-18T14:42:52;26.50;97.10
47114;DHT22;32867;51.556;6.832;2023-09-18T14:47:53;26.80;96.50
47114;DHT22;32867;51.556;6.832;2023-09-18T14:52:53;26.50;96.20
47114;DHT22;32867;51.556;6.832;2023-09-18T14:57:54;26.50;96.50
47114;DHT22;32867;51.556;6.832;2023-09-18T15:02:55;26.50;97.10
47114;DHT22;32867;51.556;6.832;2023-09-18T15:07:55;27.30;96.50
47114;DHT22;32867;51.556;6.832;2023-09-18T15:12:56;26.50;96.00
47114;DHT22;32867;51.556;6.832;2023-09-18T15:17:56;26.70;96.60
47114;DHT22;32867;51.556;6.832;2023-09-18T15:22:58;26.30;96.40
47114;DHT22;32867;51.556;6.832;2023-09-18T15:27:58;26.50;96.50
47114;DHT22;32867;51.556;6.832;2023-09-18T15:32:59;26.30;96.10
47114;DHT22;32867;51.556;6.832;2023-09-18T15:38:00;26.10;97.10
47114;DHT22;32867;51.556;6.832;2023-09-18T15:43:01;26.40;95.80
47114;DHT22;32867;51.556;6.832;2023-09-18T15:48:02;25.80;95.10
47114;DHT22;32867;51.556;6.832;2023-09-18T15:53:04;26.50;95.20
47114;DHT22;32867;51.556;6.832;2023-09-18T15:58:05;27.10;94.70
47114;DHT22;32867;51.556;6.832;2023-09-18T16:03:07;26.60;93.40
47114;DHT22;32867;51.556;6.832;2023-09-18T16:08:08;26.50;93.60
47114;DHT22;32867;51.556;6.832;2023-09-18T16:13:09;26.60;93.70
47114;DHT22;32867;51.556;6.832;2023-09-18T16:18:09;25.90;93.70
47114;DHT22;32867;51.556;6.832;2023-09-18T16:23:11;26.70;93.60
47114;DHT22;32867;51.556;6.832;2023-09-18T16:28:12;26.10;94.00
47114;DHT22;32867;51.556;6.832;2023-09-18T16:33:13;25.80;94.20
47114;DHT22;32867;51.556;6.832;2023-09-18T16:38:13;26.00;93.90
47114;DHT22;32867;51.556;6.832;2023-09-18T16:43:14;25.40;95.10
47114;DHT22;32867;51.556;6.832;2023-09-18T16:48:15;24.70;96.50
47114;DHT22;32867;51.556;6.832;2023-09-18T16:53:16;24.60;97.10
47114;DHT22;32867;51.556;6.832;2023-09-18T16:58:16;24.00;97.90
47114;DHT22;32867;51.556;6.832;2023-09-18T17:03:17;24.10;98.10
47114;DHT22;32867;51.556;6.832;2023-09-18T17:08:18;23.90;98.90
47114;DHT22;32867;51.556;6.832;2023-09-18T17:13:34;24.10;98.90
47114;DHT22;32867;51.556;6.832;2023-09-18T17:18:47;24.00;99.10
47114;DHT22;32867;51.556;6.832;2023-09-18T17:23:48;23.90;99.60
47114;DHT22;32867;51.556;6.832;2023-09-18T17:28:49;23.80;99.90
47114;DHT22;32867;51.556;6.832;2023-09-18T17:33:52;22.90;99.90
47114;DHT22;32867;51.556;6.832;2023-09-18T17:38:59;21.00;99.90
47114;DHT22;32867;51.556;6.832;2023-09-18T17:49:22;18.80;99.90
47114;DHT22;32867;51.556;6.832;2023-09-18T17:54:30;18.40;99.90
47114;DHT22;32867;51.556;6.832;2023-09-18T17:59:32;18.70;99.90
47114;DHT22;32867;51.556;6.832;2023-09-18T18:04:38;18.60;99.90
47114;DHT22;32867;51.556;6.832;2023-09-18T18:09:44;18.60;99.90
47114;DHT22;32867;51.556;6.832;2023-09-18T18:14:45;19.30;99.90
47114;DHT22;32867;51.556;6.832;2023-09-18T18:19:49;19.70;99.90
47114;DHT22;32867;51.556;6.832;2023-09-18T18:24:50;19.70;99.90
47114;DHT22;32867;51.556;6.832;2023-09-18T18:30:05;19.90;99.90
47114;DHT22;32867;51.556;6.832;2023-09-18T18:35:17;19.90;99.90
47114;DHT22;32867;51.556;6.832;2023-09-18T18:40:21;19.70;99.90
47114;DHT22;32867;51.556;6.832;2023-09-18T18:45:23;19.70;99.90
47114;DHT22;32867;51.556;6.832;2023-09-18T18:50:27;19.30;99.90
47114;DHT22;32867;51.556;6.832;2023-09-18T18:55:29;19.30;99.90
47114;DHT22;32867;51.556;6.832;2023-09-18T19:00:33;19.10;99.90
47114;DHT22;32867;51.556;6.832;2023-09-18T19:05:45;18.60;99.90
47114;DHT22;32867;51.556;6.832;2023-09-18T19:10:55;18.80;99.90
47114;DHT22;32867;51.556;6.832;2023-09-18T19:15:56;18.70;99.90
47114;DHT22;32867;51.556;6.832;2023-09-18T19:20:59;18.80;99.90
47114;DHT22;32867;51.556;6.832;2023-09-18T19:26:17;18.70;99.90
47114;DHT22;32867;51.556;6.832;2023-09-18T19:31:30;18.70;99.90
47114;DHT22;32867;51.556;6.832;2023-09-18T19:36:31;18.70;99.90
47114;DHT22;32867;51.556;6.832;2023-09-18T19:41:34;18.60;99.90
47114;DHT22;32867;51.556;6.832;2023-09-18T19:46:37;18.50;99.90
47114;DHT22;32867;51.556;6.832;2023-09-18T19:51:40;18.40;99.90
47114;DHT22;32867;51.556;6.832;2023-09-18T19:56:42;18.20;99.90
47114;DHT22;32867;51.556;6.832;2023-09-18T20:01:45;18.40;99.90
47114;DHT22;32867;51.556;6.832;2023-09-18T20:06:49;18.10;99.90
47114;DHT22;32867;51.556;6.832;2023-09-18T20:11:50;18.20;99.90
47114;DHT22;32867;51.556;6.832;2023-09-18T20:16:54;18.20;99.90
47114;DHT22;32867;51.556;6.832;2023-09-18T20:21:54;18.40;99.90
47114;DHT22;32867;51.556;6.832;2023-09-18T20:26:55;18.10;99.90
47114;DHT22;32867;51.556;6.832;2023-09-18T20:31:58;18.10;99.90
47114;DHT22;32867;51.556;6.832;2023-09-18T20:37:02;18.30;99.90
47114;DHT22;32867;51.556;6.832;2023-09-18T20:42:04;18.30;99.90
47114;DHT22;32867;51.556;6.832;2023-09-18T20:47:06;18.40;99.90
47114;DHT22;32867;51.556;6.832;2023-09-18T20:52:07;18.40;99.90
47114;DHT22;32867;51.556;6.832;2023-09-18T20:57:08;18.30;99.90
47114;DHT22;32867;51.556;6.832;2023-09-18T21:02:09;18.30;99.90
47114;DHT22;32867;51.556;6.832;2023-09-18T21:07:11;18.40;99.90
47114;DHT22;32867;51.556;6.832;2023-09-18T21:12:11;18.20;99.90
47114;DHT22;32867;51.556;6.832;2023-09-18T21:17:12;18.20;99.90
47114;DHT22;32867;51.556;6.832;2023-09-18T21:22:13;18.10;99.90
47114;DHT22;32867;51.556;6.832;2023-09-18T21:27:14;17.90;99.90
47114;DHT22;32867;51.556;6.832;2023-09-18T21:32:14;17.80;99.90
47114;DHT22;32867;51.556;6.832;2023-09-18T21:37:15;17.90;99.90
47114;DHT22;32867;51.556;6.832;2023-09-18T21:42:17;17.90;99.90
47114;DHT22;32867;51.556;6.832;2023-09-18T21:47:18;18.00;99.90
47114;DHT22;32867;51.556;6.832;2023-09-18T21:52:19;17.90;99.90
47114;DHT22;32867;51.556;6.832;2023-09-18T21:57:20;17.90;99.90
47114;DHT22;32867;51.556;6.832;2023-09-18T22:02:21;17.70;99.90
47114;DHT22;32867;51.556;6.832;2023-09-18T22:07:22;17.70;99.90
47114;DHT22;32867;51.556;6.832;2023-09-18T22:12:23;17.70;99.90
47114;DHT22;32867;51.556;6.832;2023-09-18T22:17:25;17.70;99.90
47114;DHT22;32867;51.556;6.832;2023-09-18T22:22:25;17.40;99.90
47114;DHT22;32867;51.556;6.832;2023-09-18T22:27:28;17.30;99.90
47114;DHT22;32867;51.556;6.832;2023-09-18T22:32:29;17.20;99.90
47114;DHT22;32867;51.556;6.832;2023-09-18T22:37:30;17.20;99.90
47114;DHT22;32867;51.556;6.832;2023-09-18T22:58:49;17.10;99.90
47114;DHT22;32867;51.556;6.832;2023-09-18T23:03:50;17.00;99.90
47114;DHT22;32867;51.556;6.832;2023-09-18T23:08:51;17.00;99.90
47114;DHT22;32867;51.556;6.832;2023-09-18T23:13:52;17.00;99.90
47114;DHT22;32867;51.556;6.832;2023-09-18T23:18:52;16.90;99.90
47114;DHT22;32867;51.556;6.832;2023-09-18T23:23:53;16.70;99.90
47114;DHT22;32867;51.556;6.832;2023-09-18T23:28:54;16.70;99.90
47114;DHT22;32867;51.556;6.832;2023-09-18T23:33:55;16.60;99.90
47114;DHT22;32867;51.556;6.832;2023-09-18T23:38:56;16.60;99.90
47114;DHT22;32867;51.556;6.832;2023-09-18T23:43:56;16.60;99.90
47114;DHT22;32867;51.556;6.832;2023-09-18T23:48:57;16.50;99.90
47114;DHT22;32867;51.556;6.832;2023-09-18T23:54:00;16.50;99.90
47114;DHT22;32867;51.556;6.832;2023-09-18T23:59:01;16.50;99.90
